Bei Facebook empfehlenBei Twitter postenGoogle plusPinterest

Das Wetter im Erzgebirge am 18.07.2017

Wetter und Klima am 18.07.2017 Holzhau im Erzgebirge (630m ü.NN)
Letzte gemessene Temperatur und Uhrzeit der Messung23:45:00 Uhr13.50 °C
Temperatur (Maximum / Höchstwert) und Uhrzeit der Messung14:00:00 Uhr25.90 °C
Temperatur (Minimum / Tiefstwert) und Uhrzeit der Messung04:15:0011.10 °C
Errechneter Absolutwert der Temperaturschwankungen zwischen Tmin und Tmax des Tages14.80 K
Errechnete Tagesmitteltemperatur17.94167 °C
Gesamt - Niederschlag des Tages (in flüssiger Form)0.00 Liter / m²
Luftdruck (Maximum / Höchstwert) und Zeitpunkt der Messung01:15:00 Uhr1019.50 hPa
Luftdruck (Minimum / Tiefstwert) und Zeitpunkt der Messung23:45:00 Uhr1015.90 hPa
Errechneter Absolutwert der Luftdruckschwankungen des Tages3.60 hPa
Höchste gemessene Windgeschwindigkeit und Uhrzeit der Messung18:30:00 Uhr34.92 km/h
Errechnete Windhäufigkeit in Relation zu den Messwerten des Tages10.41667 %
Niedrigste Windkühle (Windchill) und Zeitpunkt der Messung04:15:00 Uhr11.10 °C
Taupunkt (Maximum / Höchstwert) und Uhrzeit der Messung13:45:00 Uhr15.90 °C
Taupunkt (Minimum / Tiefstwert) und Uhrzeit der Messung03:15:009.90 °C
Anzahl der automatisch eingelesenen Messwerte 96

Detaillierte Wetter- und Klima- Messwerte für den 18.07.2017 in Holzhau im Erzgebirge (630m ü.NN)
ZeitTemperaturLuftdruckRel. LuftfeuchteWindWindrichtungWindchillTaupunktNiederschlag l/m²
23:45:0013.50 °C1015.90 hPa87.00 %11.40 °C 
23:30:0013.90 °C1016.00 hPa87.00 %11.80 °C 
23:15:0014.00 °C1016.30 hPa87.00 %11.90 °C 
23:00:0014.30 °C1016.20 hPa86.00 %12.00 °C 
22:45:0014.60 °C1016.20 hPa86.00 %12.30 °C 
22:30:0014.90 °C1016.40 hPa85.00 %12.40 °C 
22:15:0015.20 °C1016.40 hPa84.00 %12.50 °C 
22:00:0015.50 °C1016.30 hPa84.00 %5.04 km/hSO15.50 °C12.80 °C 
21:45:0015.90 °C1016.40 hPa83.00 %13.00 °C 
21:30:0016.20 °C1016.40 hPa81.00 %12.90 °C 
21:15:0016.70 °C1016.30 hPa79.00 %13.00 °C 
21:00:0017.50 °C1016.20 hPa77.00 %13.40 °C 
20:45:0018.40 °C1016.20 hPa74.00 %13.70 °C 
20:30:0019.30 °C1016.20 hPa71.00 %13.90 °C 
20:15:0020.10 °C1016.30 hPa69.00 %14.20 °C 
20:00:0020.80 °C1016.30 hPa66.00 %14.20 °C 
19:45:0021.50 °C1016.50 hPa65.00 %14.60 °C 
19:30:0022.10 °C1016.30 hPa63.00 %14.70 °C 
19:15:0022.80 °C1016.30 hPa62.00 %15.10 °C 
19:00:0022.60 °C1016.60 hPa64.00 %2.52 km/hS22.60 °C15.40 °C 
18:45:0022.40 °C1016.60 hPa64.00 %15.30 °C 
18:30:0022.10 °C1016.70 hPa64.00 %34.92 km/hOSO23.10 °C15.00 °C 
18:15:0022.20 °C1016.70 hPa63.00 %14.80 °C 
18:00:0022.70 °C1016.90 hPa60.00 %14.50 °C 
17:45:0023.90 °C1017.00 hPa59.00 %23.40 km/hSSO25.40 °C15.40 °C 
17:30:0023.20 °C1017.10 hPa61.00 %16.92 km/hOSO23.20 °C15.30 °C 
17:15:0022.90 °C1017.30 hPa63.00 %15.50 °C 
17:00:0022.80 °C1017.20 hPa61.00 %14.90 °C 
16:45:0023.10 °C1017.30 hPa61.00 %15.20 °C 
16:30:0022.80 °C1017.40 hPa62.00 %15.10 °C 
16:15:0023.00 °C1017.60 hPa60.00 %14.80 °C 
16:00:0023.90 °C1017.80 hPa57.00 %14.90 °C 
15:45:0024.90 °C1017.80 hPa55.00 %15.20 °C 
15:30:0024.90 °C1018.00 hPa56.00 %15.50 °C 
15:15:0025.10 °C1017.90 hPa56.00 %15.70 °C 
15:00:0024.60 °C1018.00 hPa57.00 %15.50 °C 
14:45:0024.10 °C1018.40 hPa57.00 %15.10 °C 
14:30:0024.80 °C1018.40 hPa54.00 %14.90 °C 
14:15:0025.60 °C1018.20 hPa54.00 %15.60 °C 
14:00:0025.90 °C1018.50 hPa53.00 %6.48 km/hSO25.90 °C15.60 °C 
13:45:0025.30 °C1018.60 hPa56.00 %15.90 °C 
13:30:0025.20 °C1018.80 hPa54.00 %6.48 km/hOSO25.20 °C15.20 °C 
13:15:0024.40 °C1018.80 hPa57.00 %15.30 °C 
13:00:0023.90 °C1018.90 hPa56.00 %14.60 °C 
12:45:0023.60 °C1019.10 hPa57.00 %14.60 °C 
12:30:0023.30 °C1019.10 hPa57.00 %14.30 °C 
12:15:0023.20 °C1019.10 hPa58.00 %14.50 °C 
12:00:0023.10 °C1019.30 hPa57.00 %14.10 °C 
11:45:0022.50 °C1019.20 hPa58.00 %12.96 km/hNNO22.50 °C13.80 °C 
11:30:0022.30 °C1019.20 hPa58.00 %13.60 °C 
11:15:0022.40 °C1019.30 hPa57.00 %13.50 °C 
11:00:0021.80 °C1019.30 hPa60.00 %3.96 km/hSSO21.80 °C13.70 °C 
10:45:0021.60 °C1019.20 hPa60.00 %13.50 °C 
10:30:0020.90 °C1019.10 hPa61.00 %13.10 °C 
10:15:0020.40 °C1019.30 hPa64.00 %13.40 °C 
10:00:0021.10 °C1019.30 hPa63.00 %13.80 °C 
09:45:0020.60 °C1019.10 hPa66.00 %14.00 °C 
09:30:0019.80 °C1018.90 hPa70.00 %23.40 km/hN20.70 °C14.20 °C 
09:15:0019.30 °C1018.80 hPa72.00 %14.10 °C 
09:00:0017.30 °C1018.80 hPa81.00 %14.00 °C 
08:45:0016.60 °C1018.70 hPa83.00 %13.70 °C 
08:30:0016.40 °C1018.90 hPa84.00 %13.70 °C 
08:15:0016.50 °C1019.10 hPa85.00 %14.00 °C 
08:00:0016.60 °C1018.90 hPa86.00 %14.20 °C 
07:45:0015.20 °C1018.90 hPa91.00 %13.70 °C 
07:30:0014.20 °C1018.90 hPa91.00 %12.80 °C 
07:15:0013.90 °C1019.00 hPa92.00 %12.60 °C 
07:00:0013.50 °C1019.20 hPa93.00 %12.40 °C 
06:45:0013.10 °C1019.10 hPa93.00 %12.00 °C 
06:30:0012.90 °C1019.10 hPa93.00 %11.80 °C 
06:15:0012.60 °C1019.00 hPa93.00 %11.50 °C 
06:00:0012.40 °C1019.00 hPa93.00 %11.30 °C 
05:45:0012.10 °C1019.00 hPa93.00 %11.00 °C 
05:30:0011.90 °C1018.90 hPa93.00 %10.80 °C 
05:15:0011.80 °C1018.90 hPa94.00 %10.90 °C 
05:00:0011.60 °C1018.90 hPa94.00 %10.70 °C 
04:45:0011.40 °C1018.90 hPa94.00 %10.50 °C 
04:30:0011.30 °C1018.90 hPa94.00 %10.40 °C 
04:15:0011.10 °C1019.00 hPa93.00 %10.00 °C 
04:00:0011.10 °C1018.90 hPa93.00 %10.00 °C 
03:45:0011.20 °C1019.10 hPa93.00 %10.10 °C 
03:30:0011.30 °C1019.10 hPa93.00 %10.20 °C 
03:15:0011.20 °C1019.40 hPa92.00 %9.90 °C 
03:00:0011.30 °C1019.30 hPa92.00 %10.00 °C 
02:45:0011.30 °C1019.10 hPa91.00 %9.90 °C 
02:30:0011.50 °C1019.20 hPa92.00 %10.20 °C 
02:15:0011.60 °C1019.40 hPa92.00 %10.30 °C 
02:00:0011.90 °C1019.40 hPa92.00 %10.60 °C 
01:45:0011.90 °C1019.30 hPa91.00 %10.50 °C 
01:30:0011.90 °C1019.30 hPa92.00 %10.60 °C 
01:15:0011.50 °C1019.50 hPa90.00 %9.90 °C 
01:00:0011.80 °C1019.40 hPa89.00 %10.00 °C 
00:45:0012.10 °C1019.40 hPa89.00 %10.30 °C 
00:30:0012.40 °C1019.40 hPa88.00 %10.50 °C 
00:15:0013.00 °C1019.40 hPa88.00 %11.10 °C 
00:00:0013.60 °C1019.40 hPa87.00 %11.50 °C 

Permanenter Link zu dieser Seite: Wetter im Erzgebirge am 18.07.2017
Performance-Info: Die Erstellung der Seite / Statistik(en) / Tabelle(n) erforderte 5 Datenbankserver-Abfrage(n) und dauerte 100 Millisekunden. (Dieser Messwert ist von der Gesamt-Auslastung des Servers abhängig.)
Erzgebirge - Wetter | Erzgebirge - Wetter (Mobilgeräte) | Komplette Klimadatenbank